createdAt,value
2019-04-03T00:01:46.389Z,9.60
2019-04-03T00:04:15.284Z,9.64
2019-04-03T00:06:44.071Z,9.63
2019-04-03T00:09:12.817Z,9.67
2019-04-03T00:11:41.614Z,9.68
2019-04-03T00:14:12.212Z,9.77
2019-04-03T00:16:40.897Z,9.79
2019-04-03T00:19:09.741Z,9.76
2019-04-03T00:21:38.493Z,9.70
2019-04-03T00:24:07.277Z,9.75
2019-04-03T00:26:36.103Z,9.78
2019-04-03T00:29:04.944Z,9.76
2019-04-03T00:31:33.824Z,9.74
2019-04-03T00:34:02.545Z,9.82
2019-04-03T00:36:31.319Z,9.79
2019-04-03T00:39:00.104Z,9.78
2019-04-03T00:41:28.865Z,9.78
2019-04-03T00:43:57.614Z,9.73
2019-04-03T00:46:26.358Z,9.77
2019-04-03T00:48:55.868Z,9.68
2019-04-03T00:51:27.343Z,9.67
2019-04-03T00:53:57.977Z,9.64
2019-04-03T00:56:26.845Z,9.62
2019-04-03T00:58:56.034Z,9.59
2019-04-03T01:01:26.524Z,9.56
2019-04-03T01:03:55.274Z,9.60
2019-04-03T01:06:24.030Z,9.60
2019-04-03T01:08:52.768Z,9.54
2019-04-03T01:11:21.563Z,9.57
2019-04-03T01:13:50.328Z,9.59
2019-04-03T01:16:19.110Z,9.57
2019-04-03T01:18:47.858Z,9.42
2019-04-03T01:21:16.593Z,9.25
2019-04-03T01:23:45.461Z,9.19
2019-04-03T01:26:14.198Z,9.13
2019-04-03T01:28:42.935Z,9.13
2019-04-03T01:31:14.220Z,9.07
2019-04-03T01:33:42.678Z,8.97
2019-04-03T01:36:12.428Z,8.87
2019-04-03T01:38:41.177Z,8.83
2019-04-03T01:41:09.988Z,8.75
2019-04-03T01:43:39.739Z,8.69
2019-04-03T01:46:08.499Z,8.60
2019-04-03T01:48:37.290Z,8.51
2019-04-03T01:51:06.014Z,8.39
2019-04-03T01:53:34.761Z,8.29
2019-04-03T01:56:05.135Z,8.23
2019-04-03T01:58:35.985Z,8.17
2019-04-03T02:01:08.111Z,8.07
2019-04-03T02:03:37.164Z,8.02
2019-04-03T02:06:05.936Z,7.96
2019-04-03T02:08:34.701Z,8.03
2019-04-03T02:11:03.508Z,7.95
2019-04-03T02:13:32.246Z,7.95
2019-04-03T02:16:01.085Z,7.93
2019-04-03T02:18:29.848Z,7.94
2019-04-03T02:20:58.688Z,7.93
2019-04-03T02:23:28.833Z,7.90
2019-04-03T02:25:57.935Z,7.89
2019-04-03T02:28:26.676Z,7.93
2019-04-03T02:30:55.717Z,7.92
2019-04-03T02:33:28.312Z,7.95
2019-04-03T02:35:54.966Z,7.95
2019-04-03T02:38:23.933Z,7.97
2019-04-03T02:40:52.721Z,7.92
2019-04-03T02:43:21.516Z,7.94
2019-04-03T02:45:50.361Z,7.92
2019-04-03T02:48:19.348Z,7.91
2019-04-03T02:50:48.588Z,7.90
2019-04-03T02:53:18.059Z,7.89
2019-04-03T02:55:46.832Z,7.92
2019-04-03T02:58:15.614Z,7.94
2019-04-03T03:00:44.541Z,7.92
2019-04-03T03:03:16.115Z,7.94
2019-04-03T03:05:43.764Z,7.94
2019-04-03T03:08:12.702Z,7.94
2019-04-03T03:10:41.529Z,7.88
2019-04-03T03:13:11.890Z,7.90
2019-04-03T03:15:43.895Z,7.91
2019-04-03T03:18:12.696Z,7.86
2019-04-03T03:20:42.497Z,7.85
2019-04-03T03:23:11.971Z,7.85
2019-04-03T03:25:41.272Z,7.87
2019-04-03T03:28:13.187Z,7.81
2019-04-03T03:30:50.673Z,7.79
2019-04-03T03:33:26.516Z,7.80
2019-04-03T03:35:46.856Z,7.83
2019-04-03T03:38:14.273Z,7.77
2019-04-03T03:40:47.256Z,7.71
2019-04-03T03:43:14.396Z,7.63
2019-04-03T03:45:44.769Z,7.55
2019-04-03T03:48:13.597Z,7.45
2019-04-03T03:50:43.889Z,7.41
2019-04-03T03:53:13.364Z,7.38
2019-04-03T03:55:43.709Z,7.34
2019-04-03T03:58:13.469Z,7.25
2019-04-03T04:00:42.948Z,7.20
2019-04-03T04:03:12.055Z,7.17
2019-04-03T04:05:41.829Z,7.18
2019-04-03T04:08:11.612Z,7.19
2019-04-03T04:10:41.123Z,7.08
2019-04-03T04:13:13.348Z,7.04
2019-04-03T04:15:40.519Z,6.98
2019-04-03T04:18:13.803Z,6.96
2019-04-03T04:20:40.839Z,6.94
2019-04-03T04:23:09.624Z,6.91
2019-04-03T04:25:38.436Z,6.88
2019-04-03T04:28:09.169Z,6.88
2019-04-03T04:30:38.616Z,6.83
2019-04-03T04:33:07.396Z,6.82
2019-04-03T04:35:36.410Z,6.83
2019-04-03T04:38:05.467Z,6.82
2019-04-03T04:40:34.317Z,6.84
2019-04-03T04:43:04.165Z,6.77
2019-04-03T04:45:33.925Z,6.76
2019-04-03T04:48:02.689Z,6.74
2019-04-03T04:50:32.374Z,6.62
2019-04-03T04:53:01.251Z,6.68
2019-04-03T04:55:31.311Z,6.58
2019-04-03T04:58:00.490Z,6.46
2019-04-03T05:00:30.027Z,6.39
2019-04-03T05:03:01.773Z,6.42
2019-04-03T05:05:31.152Z,6.41
2019-04-03T05:08:02.202Z,6.38
2019-04-03T05:10:31.487Z,6.28
2019-04-03T05:13:00.424Z,6.33
2019-04-03T05:15:29.391Z,6.29
2019-04-03T05:17:58.382Z,6.16
2019-04-03T05:20:27.303Z,6.14
2019-04-03T05:22:56.221Z,6.24
2019-04-03T05:25:25.032Z,6.16
2019-04-03T05:27:53.778Z,6.20
2019-04-03T05:30:36.529Z,6.28
2019-04-03T05:33:05.220Z,6.32
2019-04-03T05:35:34.011Z,6.20
2019-04-03T05:38:02.791Z,6.40
2019-04-03T05:40:31.664Z,6.37
2019-04-03T05:43:00.652Z,6.43
2019-04-03T05:45:29.457Z,6.49
2019-04-03T05:47:58.234Z,6.54
2019-04-03T05:50:27.226Z,6.59
2019-04-03T05:52:56.012Z,6.60
2019-04-03T05:55:24.888Z,6.71
2019-04-03T05:57:53.638Z,6.74
2019-04-03T06:00:22.667Z,6.76
2019-04-03T06:02:53.134Z,6.80
2019-04-03T06:05:21.879Z,6.82
2019-04-03T06:07:50.642Z,6.86
2019-04-03T06:10:19.397Z,6.83
2019-04-03T06:12:48.138Z,6.84
2019-04-03T06:15:17.316Z,6.83
2019-04-03T06:17:46.140Z,6.76
2019-04-03T06:20:15.171Z,6.88
2019-04-03T06:22:43.919Z,6.92
2019-04-03T06:25:13.937Z,6.95
2019-04-03T06:27:45.832Z,7.11
2019-04-03T06:30:15.535Z,7.16
2019-04-03T06:32:44.457Z,7.21
2019-04-03T06:35:13.642Z,7.22
2019-04-03T06:37:43.095Z,7.15
2019-04-03T06:40:12.139Z,7.27
2019-04-03T06:42:42.422Z,7.34
2019-04-03T06:45:11.598Z,7.32
2019-04-03T06:47:40.576Z,7.36
2019-04-03T06:50:11.842Z,7.35
2019-04-03T06:52:39.867Z,7.40
2019-04-03T06:55:09.540Z,7.29
2019-04-03T06:57:39.502Z,7.25
2019-04-03T07:00:08.669Z,7.26
2019-04-03T07:02:37.435Z,7.29
2019-04-03T07:05:09.575Z,7.44
2019-04-03T07:07:38.323Z,7.52
2019-04-03T07:10:09.469Z,7.50
2019-04-03T07:12:38.123Z,7.52
2019-04-03T07:15:08.451Z,7.47
2019-04-03T07:17:37.204Z,7.45
2019-04-03T07:20:14.470Z,7.53
2019-04-03T07:22:38.149Z,7.54
2019-04-03T07:25:08.641Z,7.53
2019-04-03T07:27:38.312Z,7.54
2019-04-03T07:30:09.997Z,7.58
2019-04-03T07:32:39.688Z,7.67
2019-04-03T07:35:09.753Z,7.72
2019-04-03T07:37:38.899Z,7.92
2019-04-03T07:40:08.526Z,7.84
2019-04-03T07:42:37.294Z,8.12
2019-04-03T07:45:07.803Z,8.37
2019-04-03T07:47:36.673Z,8.42
2019-04-03T07:50:10.293Z,8.46
2019-04-03T07:52:38.481Z,8.40
2019-04-03T07:55:07.853Z,8.50
2019-04-03T07:57:37.237Z,8.49
2019-04-03T08:00:08.960Z,8.67
2019-04-03T08:02:38.458Z,8.66
2019-04-03T08:05:08.817Z,8.42
2019-04-03T08:07:37.567Z,8.22
2019-04-03T08:10:07.826Z,8.43
2019-04-03T08:12:36.642Z,8.59
2019-04-03T08:15:08.096Z,8.59
2019-04-03T08:17:37.073Z,8.61
2019-04-03T08:20:08.202Z,8.87
2019-04-03T08:22:37.036Z,8.74
2019-04-03T08:25:10.627Z,8.95
2019-04-03T08:27:38.735Z,9.15
2019-04-03T08:30:10.061Z,9.19
2019-04-03T08:32:38.784Z,9.06
2019-04-03T08:35:19.969Z,8.70
2019-04-03T08:37:40.610Z,8.84
2019-04-03T08:40:09.290Z,9.16
2019-04-03T08:42:38.036Z,8.90
2019-04-03T08:45:09.667Z,8.82
2019-04-03T08:47:38.595Z,9.13
2019-04-03T08:50:11.652Z,8.96
2019-04-03T08:52:40.899Z,9.09
2019-04-03T08:55:12.906Z,9.23
2019-04-03T08:57:41.001Z,9.24
2019-04-03T09:00:12.347Z,9.14
2019-04-03T09:02:43.520Z,9.38
2019-04-03T09:05:13.763Z,9.46
2019-04-03T09:07:42.215Z,9.44
2019-04-03T09:10:13.487Z,9.48
2019-04-03T09:12:42.244Z,9.28
2019-04-03T09:15:12.556Z,9.73
2019-04-03T09:17:41.314Z,9.76
2019-04-03T09:20:12.888Z,9.89
2019-04-03T09:22:40.996Z,9.90
2019-04-03T09:25:10.021Z,9.74
2019-04-03T09:27:40.354Z,9.67
2019-04-03T09:30:11.786Z,9.88
2019-04-03T09:32:40.596Z,10.15
2019-04-03T09:35:10.442Z,10.31
2019-04-03T09:37:39.191Z,10.66
2019-04-03T09:40:08.612Z,10.43
2019-04-03T09:42:37.382Z,10.51
2019-04-03T09:45:08.719Z,10.70
2019-04-03T09:47:37.488Z,10.97
2019-04-03T09:50:08.673Z,10.65
2019-04-03T09:52:42.093Z,10.40
2019-04-03T09:55:08.337Z,10.26
2019-04-03T09:57:37.142Z,10.55
2019-04-03T10:00:10.635Z,10.49
2019-04-03T10:02:39.437Z,10.49
2019-04-03T10:05:09.229Z,10.55
2019-04-03T10:07:38.305Z,10.41
2019-04-03T10:10:09.097Z,10.64
2019-04-03T10:12:38.039Z,10.12
2019-04-03T10:15:08.411Z,9.89
2019-04-03T10:17:38.532Z,9.79
2019-04-03T10:20:10.267Z,10.14
2019-04-03T10:22:38.991Z,10.38
2019-04-03T10:25:09.313Z,10.69
2019-04-03T10:27:38.061Z,10.92
2019-04-03T10:30:12.218Z,11.08
2019-04-03T10:32:41.442Z,11.19
2019-04-03T10:35:10.968Z,10.53
2019-04-03T10:37:47.667Z,10.13
2019-04-03T10:40:17.752Z,10.19
2019-04-03T10:42:47.225Z,10.46
2019-04-03T10:45:17.414Z,10.36
2019-04-03T10:47:46.135Z,10.56
2019-04-03T10:50:15.415Z,10.11
2019-04-03T10:52:46.193Z,10.32
2019-04-03T10:55:15.825Z,10.56
2019-04-03T10:57:44.634Z,10.24
2019-04-03T11:00:15.669Z,10.11
2019-04-03T11:02:44.428Z,10.39
2019-04-03T11:05:13.983Z,10.43
2019-04-03T11:07:42.838Z,10.10
2019-04-03T11:10:12.168Z,10.03
2019-04-03T11:12:41.221Z,9.98
2019-04-03T11:15:12.649Z,10.18
2019-04-03T11:17:41.989Z,10.15
2019-04-03T11:20:14.054Z,10.00
2019-04-03T11:22:43.943Z,10.12
2019-04-03T11:25:15.307Z,9.93
2019-04-03T11:27:45.143Z,10.02
2019-04-03T11:30:19.946Z,10.28
2019-04-03T11:32:47.142Z,10.11
2019-04-03T11:35:17.244Z,10.04
2019-04-03T11:37:46.023Z,9.75
2019-04-03T11:40:18.065Z,9.77
2019-04-03T11:42:47.786Z,9.77
2019-04-03T11:45:17.094Z,10.12
2019-04-03T11:47:46.448Z,10.03
2019-04-03T11:50:18.046Z,9.99
2019-04-03T11:52:47.096Z,9.93
2019-04-03T11:55:16.027Z,10.40
2019-04-03T11:57:47.419Z,10.37
2019-04-03T12:00:24.208Z,10.22
2019-04-03T12:02:53.293Z,10.19
2019-04-03T12:05:23.040Z,10.24
2019-04-03T12:07:51.786Z,10.04
2019-04-03T12:10:20.560Z,10.40
2019-04-03T12:12:49.302Z,10.15
2019-04-03T12:15:20.205Z,10.57
2019-04-03T12:17:48.768Z,10.61
2019-04-03T12:20:17.764Z,10.80
2019-04-03T12:22:46.539Z,11.20
2019-04-03T12:25:15.705Z,11.11
2019-04-03T12:27:46.042Z,10.62
2019-04-03T12:30:16.155Z,10.52
2019-04-03T12:32:48.627Z,10.40
2019-04-03T12:35:15.489Z,10.44
2019-04-03T12:37:44.549Z,10.25
2019-04-03T12:40:14.145Z,10.34
2019-04-03T12:42:43.224Z,10.16
2019-04-03T12:45:12.298Z,10.51
2019-04-03T12:47:43.572Z,10.44
2019-04-03T12:50:13.442Z,10.54
2019-04-03T12:52:44.760Z,10.53
2019-04-03T12:55:13.031Z,10.71
2019-04-03T12:57:41.883Z,10.60
2019-04-03T13:00:13.477Z,10.57
2019-04-03T13:02:42.555Z,10.41
2019-04-03T13:05:11.378Z,10.10
2019-04-03T13:07:40.376Z,10.23
2019-04-03T13:10:10.561Z,10.03
2019-04-03T13:12:39.435Z,10.04
2019-04-03T13:15:12.585Z,10.01
2019-04-03T13:17:43.808Z,10.14
2019-04-03T13:20:12.615Z,10.17
2019-04-03T13:22:42.609Z,10.19
2019-04-03T13:25:12.870Z,10.10
2019-04-03T13:27:42.274Z,10.40
2019-04-03T13:30:13.915Z,10.53
2019-04-03T13:32:43.073Z,10.43
2019-04-03T13:35:14.598Z,10.71
2019-04-03T13:37:43.197Z,10.54
2019-04-03T13:40:12.364Z,10.47
2019-04-03T13:42:41.257Z,10.01
2019-04-03T13:45:11.804Z,10.11
2019-04-03T13:47:42.809Z,10.27
2019-04-03T13:50:11.844Z,10.27
2019-04-03T13:52:43.952Z,10.40
2019-04-03T13:55:12.153Z,10.44
2019-04-03T13:57:41.582Z,10.64
2019-04-03T14:00:20.567Z,10.74
2019-04-03T14:02:44.979Z,10.80
2019-04-03T14:05:14.493Z,10.78
2019-04-03T14:07:43.862Z,11.08
2019-04-03T14:10:12.814Z,11.33
2019-04-03T14:12:44.263Z,11.55
2019-04-03T14:15:12.148Z,11.56
2019-04-03T14:17:53.787Z,11.67
2019-04-03T14:20:13.020Z,11.73
2019-04-03T14:22:41.975Z,11.52
2019-04-03T14:25:19.369Z,11.28
2019-04-03T14:27:41.799Z,11.66
2019-04-03T14:30:12.611Z,11.50
2019-04-03T14:32:44.293Z,11.26
2019-04-03T14:35:41.251Z,11.29
2019-04-03T14:37:42.737Z,11.29
2019-04-03T14:40:12.956Z,10.88
2019-04-03T14:42:42.200Z,10.74
2019-04-03T14:45:14.574Z,10.73
2019-04-03T14:47:42.208Z,10.93
2019-04-03T14:50:12.529Z,10.85
2019-04-03T14:52:49.655Z,10.78
2019-04-03T14:55:22.307Z,10.80
2019-04-03T14:57:50.314Z,10.62
2019-04-03T15:00:27.266Z,10.68
2019-04-03T15:02:50.612Z,10.73
2019-04-03T15:05:19.738Z,10.61
2019-04-03T15:07:50.549Z,10.95
2019-04-03T15:10:20.874Z,11.05
2019-04-03T15:12:49.985Z,10.83
2019-04-03T15:15:19.176Z,10.87
2019-04-03T15:17:48.154Z,10.79
2019-04-03T15:20:18.843Z,10.87
2019-04-03T15:22:48.354Z,10.85
2019-04-03T15:25:20.288Z,10.83
2019-04-03T15:27:48.822Z,10.68
2019-04-03T15:30:18.278Z,10.56
2019-04-03T15:32:50.155Z,10.41
2019-04-03T15:35:18.795Z,10.42
2019-04-03T15:37:48.308Z,10.51
2019-04-03T15:40:18.535Z,10.37
2019-04-03T15:42:47.538Z,10.31
2019-04-03T15:45:16.892Z,10.48
2019-04-03T15:47:47.264Z,10.58
2019-04-03T15:50:17.985Z,10.49
2019-04-03T15:52:49.299Z,10.53
2019-04-03T15:55:17.727Z,10.54
2019-04-03T15:57:46.739Z,10.59
2019-04-03T16:00:21.335Z,10.58
2019-04-03T16:02:50.546Z,10.42
2019-04-03T16:05:22.217Z,10.51
2019-04-03T16:07:51.613Z,10.44
2019-04-03T16:10:23.237Z,10.44
2019-04-03T16:12:51.433Z,10.34
2019-04-03T16:15:22.458Z,10.36
2019-04-03T16:17:50.772Z,10.28
2019-04-03T16:20:19.553Z,10.02
2019-04-03T16:22:48.318Z,10.16
2019-04-03T16:25:17.881Z,10.22
2019-04-03T16:27:47.542Z,10.27
2019-04-03T16:30:18.724Z,10.25
2019-04-03T16:32:47.459Z,10.37
2019-04-03T16:35:16.277Z,10.26
2019-04-03T16:37:45.267Z,10.19
2019-04-03T16:40:15.895Z,10.17
2019-04-03T16:42:47.495Z,9.93
2019-04-03T16:45:15.662Z,9.99
2019-04-03T16:47:45.251Z,9.93
2019-04-03T16:50:15.551Z,9.93
2019-04-03T16:52:46.782Z,9.72
2019-04-03T16:55:16.749Z,9.85
2019-04-03T16:57:46.303Z,9.75
2019-04-03T17:00:17.126Z,9.79
2019-04-03T17:02:46.201Z,9.66
2019-04-03T17:05:26.035Z,9.77
2019-04-03T17:07:55.654Z,9.80
2019-04-03T17:10:27.066Z,9.82
2019-04-03T17:12:56.411Z,9.61
2019-04-03T17:15:25.238Z,9.59
2019-04-03T17:17:54.118Z,9.61
2019-04-03T17:20:23.595Z,9.56
2019-04-03T17:22:53.688Z,9.52
2019-04-03T17:25:23.398Z,9.61
2019-04-03T17:27:58.080Z,9.56
2019-04-03T17:30:26.261Z,9.60
2019-04-03T17:32:56.448Z,9.62
2019-04-03T17:35:26.640Z,9.60
2019-04-03T17:37:58.911Z,9.56
2019-04-03T17:40:26.938Z,9.56
2019-04-03T17:42:55.745Z,9.38
2019-04-03T17:45:25.130Z,9.47
2019-04-03T17:48:02.067Z,9.48
2019-04-03T17:50:31.145Z,9.49
2019-04-03T17:53:13.707Z,9.43
2019-04-03T17:55:48.544Z,9.51
2019-04-03T17:58:20.686Z,9.54
2019-04-03T18:00:52.056Z,9.44
2019-04-03T18:03:22.468Z,9.39
2019-04-03T18:05:51.384Z,9.48
2019-04-03T18:08:20.177Z,9.51
2019-04-03T18:10:49.056Z,9.43
2019-04-03T18:13:17.868Z,9.29
2019-04-03T18:15:46.618Z,9.28
2019-04-03T18:18:15.370Z,9.31
2019-04-03T18:20:44.670Z,9.35
2019-04-03T18:23:13.980Z,9.33
2019-04-03T18:25:43.776Z,9.24
2019-04-03T18:28:15.999Z,9.27
2019-04-03T18:30:45.005Z,9.36
2019-04-03T18:33:16.611Z,9.24
2019-04-03T18:35:44.428Z,9.27
2019-04-03T18:38:13.390Z,9.23
2019-04-03T18:40:46.412Z,9.29
2019-04-03T18:43:15.185Z,9.22
2019-04-03T18:45:43.970Z,9.13
2019-04-03T18:48:12.709Z,9.16
2019-04-03T18:50:41.578Z,9.15
2019-04-03T18:53:10.406Z,9.15
2019-04-03T18:55:39.136Z,9.22
2019-04-03T18:58:08.192Z,9.11
2019-04-03T19:00:36.985Z,9.04
2019-04-03T19:03:06.059Z,8.96
2019-04-03T19:05:35.676Z,8.89
2019-04-03T19:08:13.128Z,8.91
2019-04-03T19:10:34.945Z,8.90
2019-04-03T19:13:03.722Z,9.02
2019-04-03T19:15:33.678Z,8.87
2019-04-03T19:18:18.047Z,8.91
2019-04-03T19:20:48.338Z,8.97
2019-04-03T19:23:33.423Z,8.96
2019-04-03T19:26:03.328Z,8.89
2019-04-03T19:28:34.329Z,8.79
2019-04-03T19:31:16.558Z,8.77
2019-04-03T19:33:46.363Z,8.71
2019-04-03T19:36:15.204Z,8.71
2019-04-03T19:38:44.431Z,8.77
2019-04-03T19:41:13.222Z,8.69
2019-04-03T19:43:41.960Z,8.71
2019-04-03T19:46:10.730Z,8.73
2019-04-03T19:48:39.457Z,8.68
2019-04-03T19:51:08.224Z,8.74
2019-04-03T19:53:36.962Z,8.65
2019-04-03T19:56:05.737Z,8.62
2019-04-03T19:58:34.469Z,8.59
2019-04-03T20:01:05.563Z,8.47
2019-04-03T20:03:35.748Z,8.47
2019-04-03T20:06:05.350Z,8.59
2019-04-03T20:08:34.751Z,8.25
2019-04-03T20:11:06.484Z,8.61
2019-04-03T20:13:36.073Z,8.55
2019-04-03T20:16:06.366Z,8.55
2019-04-03T20:18:35.296Z,8.62
2019-04-03T20:21:04.411Z,8.48
2019-04-03T20:23:33.288Z,8.49
2019-04-03T20:26:04.615Z,8.54
2019-04-03T20:28:33.732Z,8.27
2019-04-03T20:31:03.779Z,8.54
2019-04-03T20:33:33.427Z,8.48
2019-04-03T20:36:03.111Z,8.45
2019-04-03T20:38:32.863Z,8.44
2019-04-03T20:41:03.312Z,8.34
2019-04-03T20:43:32.172Z,8.25
2019-04-03T20:46:00.906Z,8.28
2019-04-03T20:48:29.647Z,8.32
2019-04-03T20:50:58.404Z,8.35
2019-04-03T20:53:28.168Z,8.20
2019-04-03T20:55:58.126Z,8.17
2019-04-03T20:58:27.469Z,8.12
2019-04-03T21:01:06.190Z,8.19
2019-04-03T21:03:26.685Z,8.02
2019-04-03T21:05:55.943Z,8.01
2019-04-03T21:08:26.581Z,7.95
2019-04-03T21:10:55.261Z,7.99
2019-04-03T21:13:24.014Z,8.08
2019-04-03T21:15:52.936Z,8.10
2019-04-03T21:18:21.694Z,8.10
2019-04-03T21:20:50.419Z,8.07
2019-04-03T21:23:19.208Z,7.98
2019-04-03T21:25:47.962Z,8.05
2019-04-03T21:28:16.710Z,8.03
2019-04-03T21:30:45.465Z,7.99
2019-04-03T21:33:17.056Z,7.97
2019-04-03T21:35:44.786Z,8.02
2019-04-03T21:38:13.529Z,7.96
2019-04-03T21:40:42.269Z,7.89
2019-04-03T21:43:11.075Z,7.88
2019-04-03T21:45:39.934Z,7.90
2019-04-03T21:48:11.920Z,7.73
2019-04-03T21:50:41.180Z,7.75
2019-04-03T21:53:10.839Z,7.72
2019-04-03T21:55:39.653Z,7.71
2019-04-03T21:58:08.821Z,7.62
2019-04-03T22:01:00.399Z,7.61
2019-04-03T22:03:29.162Z,7.61
2019-04-03T22:05:57.905Z,7.62
2019-04-03T22:08:29.074Z,7.63
2019-04-03T22:10:57.457Z,7.60
2019-04-03T22:13:26.193Z,7.61
2019-04-03T22:15:54.950Z,7.68
2019-04-03T22:18:24.262Z,7.68
2019-04-03T22:20:53.452Z,7.69
2019-04-03T22:23:22.195Z,7.70
2019-04-03T22:25:50.932Z,7.67
2019-04-03T22:28:35.010Z,7.67
2019-04-03T22:31:05.200Z,7.76
2019-04-03T22:33:34.105Z,7.12
2019-04-03T22:36:03.350Z,7.66
2019-04-03T22:38:36.979Z,7.54
2019-04-03T22:41:03.777Z,7.54
2019-04-03T22:43:32.525Z,7.57
2019-04-03T22:46:02.494Z,7.60
2019-04-03T22:48:31.244Z,7.50
2019-04-03T22:51:00.012Z,7.48
2019-04-03T22:53:28.750Z,7.49
2019-04-03T22:55:57.525Z,7.55
2019-04-03T22:58:26.308Z,7.45
2019-04-03T23:00:55.095Z,7.43
2019-04-03T23:03:23.845Z,7.37
2019-04-03T23:05:52.728Z,7.33
2019-04-03T23:08:22.766Z,7.38
2019-04-03T23:10:52.074Z,7.44
2019-04-03T23:13:20.844Z,7.34
2019-04-03T23:15:49.570Z,7.23
2019-04-03T23:18:18.343Z,7.27
2019-04-03T23:20:47.286Z,7.27
2019-04-03T23:23:16.283Z,7.15
2019-04-03T23:25:45.101Z,7.16
2019-04-03T23:28:13.836Z,7.19
2019-04-03T23:30:42.613Z,7.24
2019-04-03T23:33:11.402Z,7.23
2019-04-03T23:35:40.140Z,7.25
2019-04-03T23:38:08.888Z,7.31
2019-04-03T23:40:37.677Z,7.31
2019-04-03T23:43:08.694Z,7.25
2019-04-03T23:45:37.044Z,7.27
2019-04-03T23:48:05.779Z,7.30
2019-04-03T23:50:34.505Z,7.26
2019-04-03T23:53:03.283Z,7.28
2019-04-03T23:55:32.452Z,7.26
2019-04-03T23:58:01.190Z,7.23
